Smithville, Canada
Current Conditions -  °F | °C
As of 12:00 PM on Saturday 20 Dec 2014 (Local Time) from CYSN Reporting Station
Broken Clouds Broken Clouds  
Wind Chill: 30°   Ceiling: 1900
Heat Index: 30°   Visibility: 15mi
Dew Point: 23°   Wind: 3mph
Humidity: 75%   Direction: NA
Pressure: 30.29"   Gusts: NA
Location:  43.1°N, 79.53°W
Report Text: CYSN 201700Z VRB03KT 15SM BKN019 M01/M05 A3029 RMK SC7 SLP260
Loading
Personal Weather Stations






























Interactive Weather Map New forecast layout! Learn more

10-Day Weather Forecast

Advertisements
Track Severe Weather on mobile